createdAt,value
2023-02-19T00:00:02.696Z,41.43
2023-02-19T00:01:02.459Z,40.88
2023-02-19T00:02:02.518Z,39.98
2023-02-19T00:03:02.515Z,39.70
2023-02-19T00:04:02.482Z,39.69
2023-02-19T00:05:02.501Z,40.38
2023-02-19T00:06:02.430Z,40.36
2023-02-19T00:07:02.495Z,40.46
2023-02-19T00:08:02.399Z,40.32
2023-02-19T00:09:02.441Z,40.18
2023-02-19T00:10:02.445Z,40.79
2023-02-19T00:11:02.377Z,40.24
2023-02-19T00:12:02.377Z,40.33
2023-02-19T00:13:02.385Z,39.88
2023-02-19T00:14:02.372Z,39.94
2023-02-19T00:15:02.657Z,39.71
2023-02-19T00:22:02.447Z,39.71
2023-02-19T00:23:02.469Z,39.55
2023-02-19T00:25:22.210Z,39.17
2023-02-19T00:26:22.088Z,38.97
2023-02-19T00:27:22.120Z,39.48
2023-02-19T00:28:22.140Z,39.50
2023-02-19T00:29:22.046Z,39.77
2023-02-19T00:30:22.080Z,39.46
2023-02-19T00:31:22.191Z,39.00
2023-02-19T00:32:22.107Z,39.32
2023-02-19T00:33:22.040Z,39.51
2023-02-19T00:34:21.995Z,39.32
2023-02-19T00:35:22.056Z,38.98
2023-02-19T00:36:22.075Z,39.85
2023-02-19T00:37:22.067Z,39.34
2023-02-19T00:38:22.117Z,38.96
2023-02-19T00:39:21.979Z,38.13
2023-02-19T00:40:21.988Z,37.71
2023-02-19T00:41:21.979Z,37.81
2023-02-19T00:42:22.346Z,38.11
2023-02-19T00:43:22.029Z,39.09
2023-02-19T00:44:21.953Z,39.80
2023-02-19T00:45:21.967Z,39.48
2023-02-19T00:46:22.060Z,39.45
2023-02-19T00:47:22.123Z,38.91
2023-02-19T00:48:21.941Z,39.05
2023-02-19T00:49:21.997Z,39.26
2023-02-19T00:50:21.948Z,39.32
2023-02-19T00:51:21.908Z,40.44
2023-02-19T00:52:21.914Z,40.51
2023-02-19T00:53:21.885Z,40.48
2023-02-19T00:54:21.898Z,40.25
2023-02-19T00:55:21.886Z,40.26
2023-02-19T00:56:21.916Z,40.21
2023-02-19T00:57:21.905Z,40.09
2023-02-19T00:58:21.854Z,40.56
2023-02-19T00:59:21.855Z,40.37
2023-02-19T01:00:21.872Z,39.84
2023-02-19T01:01:21.866Z,39.67
2023-02-19T01:02:21.866Z,39.60
2023-02-19T01:03:21.846Z,39.57
2023-02-19T01:04:22.048Z,39.93
2023-02-19T01:05:21.784Z,40.21
2023-02-19T01:06:21.803Z,39.95
2023-02-19T01:07:21.894Z,39.89
2023-02-19T01:08:21.776Z,40.31
2023-02-19T01:09:21.810Z,40.14
2023-02-19T01:10:22.280Z,39.97
2023-02-19T01:11:21.715Z,39.98
2023-02-19T01:12:21.725Z,40.14
2023-02-19T01:13:21.705Z,40.10
2023-02-19T01:14:21.715Z,40.94
2023-02-19T01:15:21.717Z,41.52
2023-02-19T01:16:21.812Z,41.58
2023-02-19T01:29:42.145Z,41.98
2023-02-19T01:30:41.992Z,41.80
2023-02-19T01:31:42.326Z,41.96
2023-02-19T01:32:41.914Z,41.80
2023-02-19T01:33:41.895Z,41.77
2023-02-19T01:34:41.876Z,41.98
2023-02-19T01:35:41.885Z,42.15
2023-02-19T01:36:42.862Z,42.15
2023-02-19T01:37:41.873Z,42.23
2023-02-19T01:38:41.865Z,42.34
2023-02-19T01:39:41.853Z,43.26
2023-02-19T01:40:41.865Z,43.67
2023-02-19T01:41:41.854Z,43.89
2023-02-19T01:42:41.839Z,44.27
2023-02-19T01:50:41.771Z,43.99
2023-02-19T01:51:41.761Z,43.87
2023-02-19T01:52:42.261Z,44.08
2023-02-19T01:53:41.797Z,44.15
2023-02-19T01:54:41.801Z,44.41
2023-02-19T01:55:41.757Z,44.04
2023-02-19T01:56:41.718Z,43.69
2023-02-19T01:57:41.732Z,43.54
2023-02-19T01:58:41.723Z,43.27
2023-02-19T02:00:41.822Z,42.77
2023-02-19T02:01:41.730Z,42.74
2023-02-19T02:02:41.709Z,43.22
2023-02-19T02:03:41.725Z,43.87
2023-02-19T02:04:41.716Z,43.52
2023-02-19T02:05:41.676Z,43.39
2023-02-19T02:06:41.669Z,42.85
2023-02-19T02:22:39.899Z,44.10
2023-02-19T02:23:39.640Z,43.54
2023-02-19T02:24:39.555Z,43.34
2023-02-19T02:25:39.676Z,43.34
2023-02-19T02:26:39.561Z,43.36
2023-02-19T02:27:39.556Z,43.45
2023-02-19T02:30:39.552Z,43.79
2023-02-19T02:31:39.697Z,43.45
2023-02-19T02:32:39.581Z,43.72
2023-02-19T02:33:39.470Z,43.67
2023-02-19T02:34:39.487Z,43.30
2023-02-19T02:35:39.513Z,43.37
2023-02-19T02:36:39.513Z,42.99
2023-02-19T02:37:39.469Z,42.92
2023-02-19T02:38:45.408Z,43.48
2023-02-19T02:39:40.476Z,43.36
2023-02-19T02:40:39.451Z,42.97
2023-02-19T02:41:39.442Z,42.86
2023-02-19T02:42:39.556Z,43.07
2023-02-19T02:43:39.424Z,43.25
2023-02-19T02:44:39.442Z,43.31
2023-02-19T02:45:39.500Z,43.55
2023-02-19T02:46:39.391Z,43.20
2023-02-19T02:47:39.473Z,42.97
2023-02-19T02:48:39.470Z,43.01
2023-02-19T02:49:39.433Z,43.01
2023-02-19T02:50:40.251Z,42.63
2023-02-19T02:51:39.535Z,42.66
2023-02-19T02:52:39.606Z,42.67
2023-02-19T02:53:39.836Z,42.91
2023-02-19T02:54:39.720Z,42.76
2023-02-19T02:55:39.756Z,42.84
2023-02-19T02:56:39.969Z,42.61
2023-02-19T02:59:02.128Z,44.45
2023-02-19T03:13:47.649Z,44.80
2023-02-19T03:14:47.454Z,44.55
2023-02-19T03:15:47.186Z,44.54
2023-02-19T03:16:47.171Z,44.80
2023-02-19T03:17:47.068Z,45.12
2023-02-19T03:18:47.092Z,45.13
2023-02-19T03:19:47.051Z,45.24
2023-02-19T03:20:47.077Z,45.19
2023-02-19T03:21:47.108Z,45.01
2023-02-19T03:22:47.016Z,45.15
2023-02-19T03:23:47.055Z,44.83
2023-02-19T03:24:47.097Z,44.61
2023-02-19T03:25:47.019Z,44.66
2023-02-19T03:26:46.999Z,44.60
2023-02-19T03:27:47.076Z,44.78
2023-02-19T03:28:47.074Z,44.90
2023-02-19T03:29:47.523Z,44.43
2023-02-19T03:30:46.982Z,44.33
2023-02-19T03:31:47.110Z,44.37
2023-02-19T03:52:14.183Z,46.82
2023-02-19T03:53:27.328Z,46.35
2023-02-19T03:55:41.919Z,47.28
2023-02-19T03:58:01.245Z,46.94
2023-02-19T04:06:00.359Z,48.11
2023-02-19T04:16:19.279Z,47.65
2023-02-19T04:18:38.321Z,47.73
2023-02-19T04:19:39.455Z,46.83
2023-02-19T04:27:17.678Z,47.37
2023-02-19T04:28:17.757Z,47.26
2023-02-19T04:29:17.352Z,47.30
2023-02-19T04:30:17.377Z,47.19
2023-02-19T04:31:17.444Z,46.82
2023-02-19T04:32:17.316Z,46.47
2023-02-19T04:33:17.302Z,46.48
2023-02-19T04:34:17.365Z,46.50
2023-02-19T04:35:17.286Z,46.74
2023-02-19T04:37:37.177Z,47.10
2023-02-19T04:38:37.238Z,46.35
2023-02-19T04:39:37.018Z,46.16
2023-02-19T04:40:36.992Z,46.00
2023-02-19T04:41:37.043Z,46.25
2023-02-19T04:42:37.006Z,46.26
2023-02-19T04:43:37.008Z,46.53
2023-02-19T04:44:37.073Z,46.19
2023-02-19T04:45:37.371Z,46.12
2023-02-19T04:46:36.970Z,45.96
2023-02-19T04:47:37.012Z,46.40
2023-02-19T04:48:36.966Z,46.26
2023-02-19T04:49:37.017Z,46.16
2023-02-19T04:50:36.953Z,46.23
2023-02-19T04:51:36.964Z,45.93
2023-02-19T04:52:36.974Z,45.82
2023-02-19T04:53:36.917Z,46.07
2023-02-19T04:54:36.921Z,45.64
2023-02-19T04:55:36.932Z,45.51
2023-02-19T04:56:36.896Z,45.44
2023-02-19T04:57:36.933Z,45.74
2023-02-19T04:58:37.035Z,45.90
2023-02-19T04:59:37.123Z,46.16
2023-02-19T05:00:37.132Z,46.29
2023-02-19T05:01:37.258Z,46.66
2023-02-19T05:02:37.250Z,46.38
2023-02-19T05:03:37.293Z,46.17
2023-02-19T05:04:37.459Z,46.08
2023-02-19T05:05:37.459Z,46.12
2023-02-19T05:06:37.553Z,46.17
2023-02-19T05:07:37.553Z,45.88
2023-02-19T05:08:37.635Z,45.81
2023-02-19T05:09:37.749Z,45.95
2023-02-19T05:10:37.774Z,46.07
2023-02-19T05:11:37.807Z,46.16
2023-02-19T05:12:37.923Z,46.46
2023-02-19T05:13:37.999Z,46.26
2023-02-19T05:14:38.014Z,46.20
2023-02-19T05:15:54.333Z,46.38
2023-02-19T05:20:54.492Z,47.35
2023-02-19T05:26:38.418Z,47.44
2023-02-19T05:27:38.065Z,47.08
2023-02-19T05:28:38.106Z,46.91
2023-02-19T05:29:38.023Z,47.29
2023-02-19T05:30:38.028Z,47.45
2023-02-19T05:31:38.256Z,47.23
2023-02-19T05:32:38.099Z,47.21
2023-02-19T05:33:38.345Z,46.96
2023-02-19T05:34:37.983Z,47.18
2023-02-19T05:35:38.047Z,47.06
2023-02-19T05:36:37.994Z,47.19
2023-02-19T05:37:38.011Z,47.45
2023-02-19T05:38:37.973Z,47.56
2023-02-19T05:39:38.014Z,47.55
2023-02-19T05:40:37.992Z,47.27
2023-02-19T05:41:37.937Z,47.03
2023-02-19T05:42:37.956Z,47.19
2023-02-19T05:43:37.952Z,47.25
2023-02-19T05:44:37.972Z,47.19
2023-02-19T05:45:37.926Z,47.15
2023-02-19T05:46:37.965Z,47.04
2023-02-19T05:47:37.989Z,47.21
2023-02-19T05:48:37.902Z,46.94
2023-02-19T05:49:37.921Z,46.80
2023-02-19T05:50:39.824Z,46.80
2023-02-19T05:51:37.920Z,46.64
2023-02-19T05:52:37.867Z,46.61
2023-02-19T05:53:37.843Z,46.47
2023-02-19T05:54:37.852Z,46.21
2023-02-19T05:55:37.854Z,46.61
2023-02-19T05:56:37.868Z,47.21
2023-02-19T05:57:37.873Z,47.45
2023-02-19T05:58:37.820Z,47.77
2023-02-19T05:59:37.865Z,48.08
2023-02-19T06:00:37.820Z,47.95
2023-02-19T06:01:37.884Z,47.43
2023-02-19T06:02:37.890Z,47.25
2023-02-19T06:03:37.962Z,47.31
2023-02-19T06:04:37.960Z,47.66
2023-02-19T06:05:37.962Z,47.65
2023-02-19T06:06:38.066Z,47.53
2023-02-19T06:07:38.085Z,47.41
2023-02-19T06:08:38.056Z,47.43
2023-02-19T06:09:38.105Z,47.28
2023-02-19T06:10:38.091Z,47.14
2023-02-19T06:11:38.115Z,47.16
2023-02-19T06:12:38.074Z,47.25
2023-02-19T06:13:38.116Z,47.42
2023-02-19T06:14:38.139Z,47.52
2023-02-19T06:15:38.103Z,47.45
2023-02-19T06:16:38.108Z,47.45
2023-02-19T06:17:38.158Z,47.59
2023-02-19T06:18:38.110Z,47.40
2023-02-19T06:19:38.141Z,47.29
2023-02-19T06:20:38.125Z,47.21
2023-02-19T06:21:38.135Z,47.18
2023-02-19T06:22:38.188Z,47.15
2023-02-19T06:23:38.245Z,46.97
2023-02-19T06:24:38.188Z,46.77
2023-02-19T06:25:38.209Z,46.86
2023-02-19T06:26:38.186Z,46.66
2023-02-19T06:27:38.218Z,47.01
2023-02-19T06:28:38.246Z,46.75
2023-02-19T06:29:38.259Z,46.77
2023-02-19T06:30:38.296Z,46.67
2023-02-19T06:31:38.434Z,46.56
2023-02-19T06:32:38.357Z,46.64
2023-02-19T06:33:38.444Z,46.81
2023-02-19T06:34:38.379Z,46.28
2023-02-19T06:35:38.390Z,46.30
2023-02-19T06:36:38.403Z,46.24
2023-02-19T06:37:38.457Z,46.18
2023-02-19T06:38:38.507Z,46.47
2023-02-19T06:39:38.545Z,46.68
2023-02-19T06:40:38.652Z,46.61
2023-02-19T06:41:38.714Z,46.59
2023-02-19T06:48:39.876Z,47.26
2023-02-19T06:49:39.982Z,46.71
2023-02-19T08:03:38.568Z,44.84
2023-02-19T08:04:38.654Z,44.66
2023-02-19T08:05:38.871Z,44.95
2023-02-19T08:06:38.235Z,45.27
2023-02-19T08:07:38.486Z,45.06
2023-02-19T08:08:37.963Z,44.62
2023-02-19T08:09:37.987Z,44.41
2023-02-19T08:10:38.350Z,44.57
2023-02-19T08:11:38.284Z,44.59
2023-02-19T08:12:38.380Z,44.69
2023-02-19T08:14:58.984Z,45.07
2023-02-19T08:21:56.116Z,45.62
2023-02-19T08:34:55.862Z,43.44
2023-02-19T08:35:55.877Z,43.58
2023-02-19T08:36:55.833Z,43.87
2023-02-19T08:37:55.836Z,43.54
2023-02-19T08:38:55.843Z,43.63
2023-02-19T08:39:55.956Z,43.28
2023-02-19T08:40:56.111Z,42.59
2023-02-19T08:41:55.941Z,41.97
2023-02-19T08:42:55.898Z,40.89
2023-02-19T08:43:56.029Z,39.28
2023-02-19T08:44:55.965Z,38.40
2023-02-19T08:45:56.114Z,36.21
2023-02-19T08:46:56.032Z,33.74
2023-02-19T08:47:56.087Z,31.89
2023-02-19T08:59:56.475Z,29.44
2023-02-19T09:00:56.443Z,28.96
2023-02-19T09:01:56.452Z,28.58
2023-02-19T09:02:56.472Z,27.53
2023-02-19T09:03:56.568Z,27.01
2023-02-19T09:04:56.522Z,26.76
2023-02-19T09:05:56.596Z,26.42
2023-02-19T09:06:56.604Z,25.71
2023-02-19T09:07:56.642Z,25.70
2023-02-19T09:08:56.644Z,25.42
2023-02-19T09:09:56.651Z,26.17
2023-02-19T09:10:56.725Z,27.07
2023-02-19T09:11:56.728Z,28.59
2023-02-19T09:12:56.767Z,28.67
2023-02-19T09:13:56.808Z,28.76
2023-02-19T09:14:56.792Z,28.14
2023-02-19T09:15:56.956Z,26.86
2023-02-19T09:16:56.905Z,25.76
2023-02-19T09:18:56.998Z,25.40
2023-02-19T09:19:56.988Z,24.32
2023-02-19T09:20:57.000Z,24.26
2023-02-19T09:21:57.004Z,23.66
2023-02-19T09:22:57.057Z,23.01
2023-02-19T09:23:57.129Z,22.79
2023-02-19T09:24:57.067Z,21.98
2023-02-19T09:25:57.138Z,20.82
2023-02-19T09:26:57.193Z,20.14
2023-02-19T09:27:57.224Z,21.49
2023-02-19T09:28:57.263Z,22.75
2023-02-19T09:29:57.317Z,24.24
2023-02-19T09:30:57.390Z,24.53
2023-02-19T09:31:57.308Z,24.70
2023-02-19T09:32:57.326Z,25.29
2023-02-19T09:33:57.411Z,24.08
2023-02-19T09:34:57.388Z,23.64
2023-02-19T09:35:57.416Z,23.84
2023-02-19T09:36:57.427Z,22.85
2023-02-19T09:37:57.503Z,22.90
2023-02-19T09:38:57.544Z,22.75
2023-02-19T09:39:57.547Z,22.80
2023-02-19T09:40:57.590Z,23.31
2023-02-19T09:42:57.657Z,24.94
2023-02-19T09:43:57.679Z,25.82
2023-02-19T09:44:57.670Z,24.59
2023-02-19T09:45:57.717Z,23.40
2023-02-19T09:46:57.712Z,24.08
2023-02-19T09:48:57.765Z,24.90
2023-02-19T09:49:57.760Z,25.70
2023-02-19T09:51:57.780Z,26.45
2023-02-19T09:52:57.827Z,27.14
2023-02-19T09:53:57.919Z,27.62
2023-02-19T09:54:57.933Z,28.42
2023-02-19T09:55:57.965Z,28.11
2023-02-19T09:56:57.971Z,28.90
2023-02-19T09:57:58.026Z,29.56
2023-02-19T10:04:58.182Z,30.34
2023-02-19T10:09:17.930Z,25.51
2023-02-19T10:10:18.223Z,24.64
2023-02-19T10:11:17.802Z,24.51
2023-02-19T10:12:17.996Z,24.51
2023-02-19T10:13:17.627Z,24.95
2023-02-19T10:14:17.843Z,26.02
2023-02-19T10:15:18.017Z,27.02
2023-02-19T10:16:17.652Z,27.99
2023-02-19T10:17:17.672Z,27.86
2023-02-19T10:18:17.684Z,28.35
2023-02-19T10:19:17.637Z,28.10
2023-02-19T10:20:17.746Z,27.18
2023-02-19T10:35:56.567Z,21.31
2023-02-19T10:36:56.371Z,20.93
2023-02-19T10:37:56.048Z,20.78
2023-02-19T10:38:55.973Z,21.42
2023-02-19T10:39:55.973Z,22.64
2023-02-19T10:40:56.123Z,22.08
2023-02-19T10:41:56.509Z,21.42
2023-02-19T10:42:56.234Z,20.80
2023-02-19T10:43:55.988Z,20.51
2023-02-19T10:44:55.928Z,20.23
2023-02-19T10:45:55.968Z,20.01
2023-02-19T10:46:55.932Z,20.10
2023-02-19T10:49:15.747Z,20.33
2023-02-19T10:51:34.626Z,19.33
2023-02-19T10:52:34.461Z,18.93
2023-02-19T10:53:34.423Z,18.81
2023-02-19T10:54:35.394Z,19.36
2023-02-19T10:55:35.521Z,20.18
2023-02-19T10:56:34.195Z,20.04
2023-02-19T10:57:34.185Z,19.80
2023-02-19T10:58:34.229Z,20.21
2023-02-19T10:59:34.536Z,20.36
2023-02-19T11:00:34.301Z,20.32
2023-02-19T11:01:34.152Z,20.78
2023-02-19T11:02:34.123Z,21.48
2023-02-19T11:04:53.772Z,23.02
2023-02-19T11:05:53.625Z,22.49
2023-02-19T11:06:54.143Z,21.68
2023-02-19T11:07:53.624Z,21.83
2023-02-19T11:18:48.851Z,20.85
2023-02-19T11:19:49.059Z,20.44
2023-02-19T11:20:48.760Z,20.54
2023-02-19T11:21:50.235Z,20.06
2023-02-19T11:24:09.567Z,19.68
2023-02-19T11:25:23.455Z,20.19
2023-02-19T11:26:08.392Z,19.83
2023-02-19T11:27:08.150Z,20.00
2023-02-19T11:29:29.027Z,20.08
2023-02-19T11:30:27.975Z,19.50
2023-02-19T11:31:28.321Z,19.43
2023-02-19T11:32:27.530Z,19.76
2023-02-19T11:33:27.561Z,20.35
2023-02-19T11:34:27.266Z,20.53
2023-02-19T11:35:27.490Z,20.10
2023-02-19T11:36:29.739Z,20.11
2023-02-19T11:38:47.183Z,19.50
2023-02-19T11:43:46.238Z,19.44
2023-02-19T11:44:46.533Z,19.30
2023-02-19T11:45:46.004Z,19.21
2023-02-19T11:46:47.023Z,19.02
2023-02-19T11:47:45.659Z,19.71
2023-02-19T12:13:34.364Z,19.45
2023-02-19T12:23:44.569Z,16.01
2023-02-19T12:25:54.468Z,16.77
2023-02-19T12:40:01.016Z,16.90
2023-02-19T12:42:26.391Z,16.94
2023-02-19T12:46:01.877Z,16.58
2023-02-19T12:47:02.254Z,15.76
2023-02-19T12:53:39.213Z,15.88
2023-02-19T13:09:39.130Z,16.15
2023-02-19T13:23:37.048Z,15.80
2023-02-19T14:09:11.280Z,16.98
2023-02-19T14:10:11.082Z,17.50
2023-02-19T14:14:50.240Z,16.89
2023-02-19T14:45:38.778Z,19.13
2023-02-19T14:47:51.860Z,18.98
2023-02-19T14:50:10.491Z,19.40
2023-02-19T14:51:10.514Z,19.49
2023-02-19T14:52:10.624Z,19.16
2023-02-19T14:53:09.917Z,19.21
2023-02-19T14:54:09.883Z,19.44
2023-02-19T14:55:09.919Z,19.13
2023-02-19T14:56:09.849Z,19.29
2023-02-19T14:57:09.934Z,19.12
2023-02-19T14:58:10.091Z,19.08
2023-02-19T15:04:13.473Z,19.97
2023-02-19T15:25:47.876Z,20.14
2023-02-19T15:26:47.886Z,20.45
2023-02-19T15:27:47.944Z,20.57
2023-02-19T15:28:47.876Z,20.62
2023-02-19T15:29:47.877Z,20.56
2023-02-19T15:30:47.864Z,20.93
2023-02-19T15:31:47.924Z,20.60
2023-02-19T15:32:47.834Z,20.61
2023-02-19T15:33:47.846Z,20.62
2023-02-19T15:34:47.835Z,20.53
2023-02-19T15:35:47.801Z,20.30
2023-02-19T15:36:47.823Z,20.53
2023-02-19T15:37:47.817Z,20.68
2023-02-19T15:38:48.297Z,20.58
2023-02-19T15:39:48.023Z,20.81
2023-02-19T15:40:47.864Z,21.01
2023-02-19T15:41:48.706Z,20.51
2023-02-19T15:42:49.435Z,20.76
2023-02-19T15:43:48.777Z,20.45
2023-02-19T15:44:48.633Z,20.62
2023-02-19T15:45:48.494Z,20.81
2023-02-19T15:46:48.466Z,20.48
2023-02-19T15:47:48.656Z,20.27
2023-02-19T15:51:07.512Z,19.91
2023-02-19T15:52:07.472Z,20.00
2023-02-19T15:53:07.090Z,20.08
2023-02-19T15:55:07.194Z,20.78
2023-02-19T15:56:07.402Z,20.71
2023-02-19T15:57:07.034Z,20.08
2023-02-19T15:58:07.099Z,20.34
2023-02-19T15:59:07.119Z,20.23
2023-02-19T16:00:07.022Z,20.32
2023-02-19T16:01:07.068Z,20.41
2023-02-19T16:02:07.037Z,20.25
2023-02-19T16:03:07.128Z,20.44
2023-02-19T16:04:07.036Z,20.39
2023-02-19T16:05:07.072Z,20.47
2023-02-19T16:06:06.961Z,20.51
2023-02-19T16:07:07.011Z,20.21
2023-02-19T16:08:08.131Z,20.19
2023-02-19T16:09:08.939Z,20.82
2023-02-19T16:11:27.145Z,21.06
2023-02-19T16:13:35.988Z,20.94
2023-02-19T16:14:27.291Z,21.16
2023-02-19T16:15:26.878Z,20.91
2023-02-19T16:16:26.937Z,21.33
2023-02-19T16:17:26.894Z,21.32
2023-02-19T16:43:20.433Z,23.33
2023-02-19T16:44:21.164Z,23.00
2023-02-19T16:45:20.453Z,22.74
2023-02-19T16:46:20.224Z,22.81
2023-02-19T16:47:20.355Z,23.06
2023-02-19T16:48:21.397Z,22.99
2023-02-19T16:50:39.962Z,23.05
2023-02-19T16:51:42.330Z,23.38
2023-02-19T16:54:06.270Z,23.68
2023-02-19T16:59:12.744Z,25.07
2023-02-19T17:00:12.508Z,24.68
2023-02-19T17:01:13.284Z,24.64
2023-02-19T17:02:13.188Z,24.11
2023-02-19T17:03:12.465Z,24.03
2023-02-19T17:04:12.463Z,24.13
2023-02-19T17:05:12.439Z,24.33
2023-02-19T17:06:12.477Z,24.12
2023-02-19T17:07:12.409Z,24.08
2023-02-19T17:08:12.419Z,24.47
2023-02-19T17:09:12.500Z,24.50
2023-02-19T17:10:12.421Z,24.16
2023-02-19T17:11:12.595Z,24.66
2023-02-19T17:12:12.411Z,24.71
2023-02-19T17:13:12.365Z,24.71
2023-02-19T17:14:12.381Z,26.09
2023-02-19T17:15:12.331Z,26.10
2023-02-19T17:16:12.345Z,26.83
2023-02-19T17:17:12.386Z,27.30
2023-02-19T17:18:12.375Z,27.49
2023-02-19T17:19:12.317Z,27.53
2023-02-19T17:20:12.300Z,27.85
2023-02-19T17:21:12.544Z,27.83
2023-02-19T17:22:12.280Z,27.90
2023-02-19T17:23:12.329Z,28.24
2023-02-19T17:24:12.389Z,28.15
2023-02-19T17:25:12.449Z,28.33
2023-02-19T17:26:12.369Z,28.79
2023-02-19T17:27:12.419Z,29.10
2023-02-19T17:28:12.442Z,29.01
2023-02-19T17:29:12.483Z,28.57
2023-02-19T17:30:12.589Z,28.87
2023-02-19T17:31:12.929Z,28.83
2023-02-19T17:32:12.732Z,28.55
2023-02-19T17:33:12.674Z,28.64
2023-02-19T17:34:12.813Z,28.55
2023-02-19T17:35:12.820Z,28.67
2023-02-19T17:36:12.850Z,28.67
2023-02-19T17:37:12.831Z,28.70
2023-02-19T17:38:12.904Z,28.71
2023-02-19T17:40:34.094Z,28.97
2023-02-19T17:41:35.143Z,28.89
2023-02-19T17:42:33.898Z,28.97
2023-02-19T17:43:33.408Z,29.14
2023-02-19T17:44:33.379Z,29.40
2023-02-19T17:48:46.628Z,30.36
2023-02-19T17:52:20.582Z,30.69
2023-02-19T17:53:20.478Z,29.95
2023-02-19T17:59:40.842Z,30.26
2023-02-19T18:00:41.398Z,29.82
2023-02-19T18:01:40.775Z,29.87
2023-02-19T18:02:40.317Z,29.94
2023-02-19T18:03:40.408Z,29.76
2023-02-19T18:04:41.213Z,29.79
2023-02-19T18:05:40.841Z,29.77
2023-02-19T18:12:39.752Z,29.48
2023-02-19T18:13:39.568Z,29.40
2023-02-19T18:14:39.711Z,29.67
2023-02-19T18:15:39.445Z,29.83
2023-02-19T18:16:39.410Z,30.64
2023-02-19T18:17:39.504Z,30.09
2023-02-19T18:18:39.392Z,29.88
2023-02-19T18:19:39.410Z,29.77
2023-02-19T18:20:39.490Z,30.71
2023-02-19T18:21:39.351Z,30.91
2023-02-19T18:22:39.365Z,31.03
2023-02-19T18:23:39.372Z,31.14
2023-02-19T18:24:40.204Z,31.24
2023-02-19T18:25:39.394Z,31.40
2023-02-19T18:26:39.356Z,31.36
2023-02-19T18:27:39.343Z,32.03
2023-02-19T18:28:39.642Z,32.10
2023-02-19T18:41:22.933Z,33.40
2023-02-19T18:42:24.032Z,33.32
2023-02-19T19:03:41.713Z,33.76
2023-02-19T19:31:21.481Z,34.75
2023-02-19T19:32:23.823Z,34.94
2023-02-19T19:34:41.191Z,35.29
2023-02-19T19:53:19.851Z,36.04
2023-02-19T19:59:57.855Z,35.60
2023-02-19T20:01:57.447Z,35.55
2023-02-19T20:06:16.793Z,35.64
2023-02-19T20:07:16.441Z,35.27
2023-02-19T20:08:16.512Z,35.63
2023-02-19T20:09:16.468Z,36.18
2023-02-19T20:10:16.571Z,35.84
2023-02-19T20:11:16.634Z,35.83
2023-02-19T20:12:16.752Z,35.76
2023-02-19T20:13:17.255Z,35.69
2023-02-19T20:15:36.537Z,36.73
2023-02-19T20:16:36.538Z,36.10
2023-02-19T20:17:36.185Z,36.14
2023-02-19T20:18:36.216Z,36.05
2023-02-19T20:19:36.208Z,35.95
2023-02-19T20:20:36.193Z,35.91
2023-02-19T20:21:36.168Z,35.93
2023-02-19T20:22:36.174Z,35.92
2023-02-19T20:23:36.189Z,35.85
2023-02-19T20:24:36.149Z,35.87
2023-02-19T20:25:36.157Z,35.82
2023-02-19T20:26:36.120Z,35.87
2023-02-19T20:27:36.201Z,35.88
2023-02-19T20:28:36.119Z,35.96
2023-02-19T20:29:36.099Z,36.21
2023-02-19T20:30:36.116Z,36.38
2023-02-19T20:31:36.220Z,36.58
2023-02-19T20:32:36.104Z,36.43
2023-02-19T20:33:36.065Z,36.47
2023-02-19T20:34:36.058Z,36.37
2023-02-19T20:35:36.055Z,36.31
2023-02-19T20:36:36.062Z,36.41
2023-02-19T20:37:36.032Z,36.37
2023-02-19T20:39:56.112Z,36.52
2023-02-19T20:40:56.322Z,36.58
2023-02-19T20:41:56.112Z,36.59
2023-02-19T20:42:56.029Z,37.27
2023-02-19T20:43:56.056Z,37.38
2023-02-19T20:44:56.011Z,37.21
2023-02-19T20:45:56.051Z,37.08
2023-02-19T20:46:56.003Z,36.89
2023-02-19T20:47:55.972Z,36.81
2023-02-19T20:48:56.158Z,36.67
2023-02-19T20:49:56.052Z,36.93
2023-02-19T20:50:56.009Z,37.18
2023-02-19T20:51:55.985Z,37.63
2023-02-19T20:54:16.587Z,38.60
2023-02-19T20:55:16.334Z,38.09
2023-02-19T21:01:50.316Z,38.11
2023-02-19T21:03:54.976Z,38.95
2023-02-19T21:04:54.649Z,38.42
2023-02-19T21:05:54.665Z,38.27
2023-02-19T21:06:54.663Z,38.27
2023-02-19T21:07:54.628Z,38.65
2023-02-19T21:08:54.601Z,38.73
2023-02-19T21:09:54.886Z,38.33
2023-02-19T21:10:54.625Z,38.34
2023-02-19T21:11:54.593Z,38.68
2023-02-19T21:12:54.619Z,38.65
2023-02-19T21:13:54.635Z,38.43
2023-02-19T21:14:54.648Z,39.56
2023-02-19T21:15:54.856Z,39.44
2023-02-19T21:16:54.559Z,39.23
2023-02-19T21:17:54.666Z,39.09
2023-02-19T21:18:54.687Z,38.99
2023-02-19T21:19:54.765Z,39.00
2023-02-19T21:20:54.825Z,39.03
2023-02-19T21:21:54.897Z,39.08
2023-02-19T21:22:54.907Z,39.05
2023-02-19T21:26:34.661Z,39.38
2023-02-19T21:27:34.332Z,39.20
2023-02-19T21:28:34.242Z,39.07
2023-02-19T21:29:34.292Z,39.09
2023-02-19T21:30:34.306Z,39.30
2023-02-19T21:31:34.314Z,39.39
2023-02-19T21:32:34.272Z,39.50
2023-02-19T21:33:34.210Z,39.71
2023-02-19T21:34:34.211Z,40.25
2023-02-19T21:35:34.214Z,39.91
2023-02-19T21:36:34.204Z,40.40
2023-02-19T21:37:34.245Z,40.07
2023-02-19T21:38:34.200Z,39.68
2023-02-19T21:39:34.171Z,39.53
2023-02-19T21:40:34.211Z,39.56
2023-02-19T21:41:34.172Z,39.54
2023-02-19T21:42:34.152Z,39.80
2023-02-19T21:43:34.166Z,40.04
2023-02-19T21:44:34.080Z,40.17
2023-02-19T21:47:53.827Z,40.77
2023-02-19T21:48:54.020Z,40.63
2023-02-19T21:49:53.705Z,40.53
2023-02-19T21:50:53.795Z,40.49
2023-02-19T21:51:54.244Z,39.94
2023-02-19T21:52:53.709Z,39.63
2023-02-19T21:53:53.696Z,40.04
2023-02-19T21:54:53.687Z,40.10
2023-02-19T21:55:58.726Z,40.02
2023-02-19T21:56:54.668Z,39.87
2023-02-19T21:57:53.650Z,40.06
2023-02-19T21:58:53.629Z,39.98
2023-02-19T21:59:53.610Z,39.91
2023-02-19T22:00:53.750Z,39.76
2023-02-19T22:01:53.589Z,40.00
2023-02-19T22:02:53.739Z,40.36
2023-02-19T22:03:53.620Z,40.51
2023-02-19T22:04:53.588Z,40.28
2023-02-19T22:05:53.580Z,40.27
2023-02-19T22:06:53.591Z,40.45
2023-02-19T22:07:53.580Z,40.26
2023-02-19T22:08:53.560Z,40.54
2023-02-19T22:09:53.571Z,40.94
2023-02-19T22:10:53.575Z,40.70
2023-02-19T22:11:53.582Z,40.73
2023-02-19T22:12:53.630Z,40.34
2023-02-19T22:13:53.641Z,41.09
2023-02-19T22:14:53.692Z,41.05
2023-02-19T22:15:53.753Z,40.42
2023-02-19T22:16:53.721Z,39.84
2023-02-19T22:20:33.498Z,40.43
2023-02-19T22:21:33.672Z,40.22
2023-02-19T22:22:33.404Z,40.22
2023-02-19T22:23:33.345Z,40.34
2023-02-19T22:24:33.360Z,40.69
2023-02-19T22:25:33.356Z,40.88
2023-02-19T22:26:33.336Z,40.92
2023-02-19T22:27:33.312Z,40.55
2023-02-19T22:28:33.353Z,40.51
2023-02-19T22:29:33.366Z,40.56
2023-02-19T22:30:33.395Z,40.54
2023-02-19T22:31:33.377Z,40.68
2023-02-19T22:32:33.603Z,40.82
2023-02-19T22:33:33.332Z,41.11
2023-02-19T22:34:33.267Z,40.88
2023-02-19T22:35:33.275Z,40.97
2023-02-19T22:36:33.280Z,40.85
2023-02-19T22:37:33.292Z,40.98
2023-02-19T22:38:33.285Z,40.76
2023-02-19T22:39:33.332Z,40.91
2023-02-19T22:40:33.215Z,40.85
2023-02-19T22:41:33.216Z,40.94
2023-02-19T22:42:35.713Z,41.11
2023-02-19T22:43:33.242Z,41.47
2023-02-19T22:44:33.191Z,41.57
2023-02-19T22:45:33.269Z,41.38
2023-02-19T22:46:33.169Z,41.22
2023-02-19T22:47:33.184Z,41.35
2023-02-19T22:48:33.205Z,41.46
2023-02-19T22:49:33.181Z,41.39
2023-02-19T22:50:33.194Z,41.41
2023-02-19T22:52:53.357Z,41.23
2023-02-19T22:53:53.573Z,41.40
2023-02-19T22:54:53.359Z,41.30
2023-02-19T22:55:53.277Z,41.33
2023-02-19T22:56:53.236Z,41.39
2023-02-19T22:57:53.222Z,41.45
2023-02-19T22:58:53.229Z,41.54
2023-02-19T22:59:53.192Z,41.49
2023-02-19T23:00:53.504Z,41.11
2023-02-19T23:01:54.004Z,41.10
2023-02-19T23:02:53.248Z,41.10
2023-02-19T23:03:53.252Z,41.26
2023-02-19T23:04:53.230Z,41.56
2023-02-19T23:05:53.182Z,41.64
2023-02-19T23:06:53.179Z,41.74
2023-02-19T23:07:53.210Z,42.01
2023-02-19T23:08:53.194Z,42.11
2023-02-19T23:09:53.197Z,42.08
2023-02-19T23:10:53.113Z,42.14
2023-02-19T23:11:53.117Z,42.33
2023-02-19T23:12:53.193Z,42.04
2023-02-19T23:13:53.174Z,42.37
2023-02-19T23:14:53.136Z,42.48
2023-02-19T23:15:53.106Z,42.45
2023-02-19T23:16:53.091Z,42.62
2023-02-19T23:17:53.128Z,42.90
2023-02-19T23:18:53.118Z,42.87
2023-02-19T23:19:53.070Z,43.21
2023-02-19T23:20:53.113Z,42.56
2023-02-19T23:21:53.042Z,42.73
2023-02-19T23:22:53.087Z,42.47